Altoona, Iowa
Current Conditions -  °F | °C
As of 10:35 PM on Friday 19 Dec 2014 (Local Time) from KIKV Reporting Station
Haze Haze  
Wind Chill: -5°   Ceiling: 400
Heat Index: -1°   Visibility: 2.5mi
Dew Point: -1°   Wind: 7mph
Humidity: 100%   Direction: 150°SSE
Pressure: 30.2"   Gusts: NA
Location:  41.64°N, 93.46°W
Report Text: KIKV 200435Z AUTO 15006KT 2 1/2SM BR OVC004 M01/M01 A3020 RMK AO2
Loading
Personal Weather Stations






























Interactive Weather Map New forecast layout! Learn more

10-Day Weather Forecast

Advertisements
Track Severe Weather on mobile